Time;durP1;ratioP1;P1;durP2;ratioP2;P2;SDS_P1;SDS_P2;PMS_P1;PMS_P2;Temp;Humidity;BMP_temperature;BMP_pressure;BME280_temperature;BME280_humidity;BME280_pressure;Samples;Min_cycle;Max_cycle;Signal;HPM_P1;HPM_P2
2024/04/05 00:00:39;;;;;;;4.13;1.02;;;;;;;;;;4936139;29;20031;-79
2024/04/05 00:03:04;;;;;;;2.10;0.80;;;;;;;;;;4934522;29;20039;-79
2024/04/05 00:05:30;;;;;;;3.60;0.90;;;;;;;;;;4919122;29;20051;-80
2024/04/05 00:07:55;;;;;;;4.80;0.88;;;;;;;;;;4919572;29;20043;-81
2024/04/05 00:10:21;;;;;;;5.65;0.88;;;;;;;;;;4904032;29;20035;-80
2024/04/05 00:12:46;;;;;;;4.22;1.13;;;;;;;;;;4934517;29;20039;-80
2024/04/05 00:15:12;;;;;;;5.35;0.90;;;;;;;;;;4919406;29;20047;-81
2024/04/05 00:17:38;;;;;;;7.85;1.13;;;;;;;;;;4918043;29;20061;-80
2024/04/05 00:20:03;;;;;;;3.72;1.33;;;;;;;;;;4931924;29;20043;-81
2024/04/05 00:22:29;;;;;;;4.47;0.90;;;;;;;;;;4903268;29;20131;-81
2024/04/05 00:24:57;;;;;;;4.15;1.00;;;;;;;;;;4903651;29;20122;-81
2024/04/05 00:27:23;;;;;;;3.83;1.30;;;;;;;;;;4918677;29;20506;-79
2024/04/05 00:29:48;;;;;;;6.22;1.25;;;;;;;;;;4934129;29;20032;-79
2024/04/05 00:32:14;;;;;;;4.07;0.68;;;;;;;;;;4918327;29;20402;-80
2024/04/05 00:34:40;;;;;;;7.15;0.85;;;;;;;;;;4901446;29;20094;-80
2024/04/05 00:37:05;;;;;;;5.60;1.00;;;;;;;;;;4914618;29;20491;-80
2024/04/05 00:39:31;;;;;;;4.00;1.08;;;;;;;;;;4934792;29;20031;-78
2024/04/05 00:41:56;;;;;;;3.85;0.70;;;;;;;;;;4949352;29;20070;-79
2024/04/05 00:44:24;;;;;;;5.85;1.35;;;;;;;;;;4918021;29;20039;-78
2024/04/05 00:46:49;;;;;;;4.18;1.08;;;;;;;;;;4917771;29;20027;-78
2024/04/05 00:49:15;;;;;;;2.33;0.90;;;;;;;;;;4917835;29;20032;-78
2024/04/05 00:51:41;;;;;;;8.55;1.10;;;;;;;;;;4917875;29;20110;-79
2024/04/05 00:54:06;;;;;;;4.53;1.30;;;;;;;;;;4930256;29;20032;-79
2024/04/05 00:56:32;;;;;;;5.55;1.40;;;;;;;;;;4925635;29;20032;-78
2024/04/05 00:58:58;;;;;;;6.30;1.17;;;;;;;;;;4917926;29;20396;-79
2024/04/05 01:01:24;;;;;;;5.25;1.00;;;;;;;;;;4918552;29;20491;-80
2024/04/05 01:03:49;;;;;;;4.75;1.20;;;;;;;;;;4918681;29;20035;-80
2024/04/05 01:06:15;;;;;;;5.97;1.08;;;;;;;;;;4918692;29;20035;-80
2024/04/05 01:08:41;;;;;;;4.95;1.33;;;;;;;;;;4918545;29;20034;-78
2024/04/05 01:11:07;;;;;;;4.10;0.82;;;;;;;;;;4918816;29;20028;-80
2024/04/05 01:13:33;;;;;;;4.10;0.85;;;;;;;;;;4918215;29;20034;-80
2024/04/05 01:15:58;;;;;;;8.05;1.50;;;;;;;;;;4902463;29;20039;-80
2024/04/05 01:18:24;;;;;;;3.92;0.95;;;;;;;;;;4918277;29;20380;-78
2024/04/05 01:20:50;;;;;;;4.18;1.05;;;;;;;;;;4918195;29;20028;-78
2024/04/05 01:23:16;;;;;;;5.25;0.90;;;;;;;;;;4918269;29;20042;-80
2024/04/05 01:25:42;;;;;;;3.78;1.02;;;;;;;;;;4918293;29;20039;-80
2024/04/05 01:28:11;;;;;;;5.53;1.05;;;;;;;;;;4933762;29;20407;-80
2024/04/05 01:30:37;;;;;;;2.95;1.15;;;;;;;;;;4911736;29;20392;-79
2024/04/05 01:33:02;;;;;;;6.97;1.15;;;;;;;;;;4938261;29;20040;-80
2024/04/05 01:35:28;;;;;;;6.45;0.98;;;;;;;;;;4937142;29;20471;-80
2024/04/05 01:37:54;;;;;;;5.32;1.00;;;;;;;;;;4922138;29;20035;-80
2024/04/05 01:40:20;;;;;;;3.00;1.17;;;;;;;;;;4937495;29;20031;-80
2024/04/05 01:42:45;;;;;;;4.40;1.08;;;;;;;;;;4938655;29;20066;-79
2024/04/05 01:45:11;;;;;;;4.38;1.13;;;;;;;;;;4937354;29;20026;-79
2024/04/05 01:47:37;;;;;;;8.85;1.70;;;;;;;;;;4937166;29;20027;-80
2024/04/05 01:50:03;;;;;;;3.85;0.85;;;;;;;;;;4906162;29;20091;-79
2024/04/05 01:52:28;;;;;;;5.93;1.23;;;;;;;;;;4930727;29;20035;-79
2024/04/05 01:54:54;;;;;;;6.55;1.20;;;;;;;;;;4932145;29;20083;-79
2024/04/05 01:57:20;;;;;;;7.22;1.50;;;;;;;;;;4918943;29;20098;-79
2024/04/05 01:59:53;;;;;;;4.97;1.20;;;;;;;;;;4928640;29;20499;-79
2024/04/05 02:02:19;;;;;;;3.00;1.00;;;;;;;;;;4920626;29;20064;-80
2024/04/05 02:04:45;;;;;;;5.75;1.13;;;;;;;;;;4952158;29;20032;-79
2024/04/05 02:07:10;;;;;;;7.20;1.30;;;;;;;;;;4920660;29;20411;-79
2024/04/05 02:09:36;;;;;;;6.78;1.17;;;;;;;;;;4938163;29;20032;-80
2024/04/05 02:12:02;;;;;;;6.53;1.30;;;;;;;;;;4919601;29;20047;-80
2024/04/05 02:14:27;;;;;;;4.32;1.30;;;;;;;;;;4924292;29;20039;-80
2024/04/05 02:16:57;;;;;;;13.73;1.40;;;;;;;;;;4923718;29;20043;-80
2024/04/05 02:19:23;;;;;;;5.32;1.08;;;;;;;;;;4896625;29;20036;-79
2024/04/05 02:21:48;;;;;;;9.05;1.60;;;;;;;;;;4930338;29;20051;-80
2024/04/05 02:24:14;;;;;;;4.15;1.05;;;;;;;;;;4909914;29;20028;-80
2024/04/05 02:26:40;;;;;;;5.28;1.00;;;;;;;;;;4918642;29;20043;-80
2024/04/05 02:29:05;;;;;;;7.03;1.13;;;;;;;;;;4932222;29;20035;-79
2024/04/05 02:31:31;;;;;;;3.05;1.23;;;;;;;;;;4932244;29;20038;-81
2024/04/05 02:33:56;;;;;;;8.00;1.17;;;;;;;;;;4946909;29;20050;-80
2024/04/05 02:36:22;;;;;;;5.55;1.10;;;;;;;;;;4931146;29;20087;-80
2024/04/05 02:38:47;;;;;;;5.07;1.17;;;;;;;;;;4932225;29;20046;-79
2024/04/05 02:41:13;;;;;;;5.15;1.50;;;;;;;;;;4947570;29;20032;-80
2024/04/05 02:43:39;;;;;;;8.20;1.67;;;;;;;;;;4943135;29;20488;-80
2024/04/05 02:46:05;;;;;;;5.20;1.45;;;;;;;;;;4945941;29;20039;-78
2024/04/05 02:48:31;;;;;;;6.55;1.42;;;;;;;;;;4945424;29;20032;-79
2024/04/05 02:50:56;;;;;;;8.55;1.48;;;;;;;;;;4941780;29;20039;-79
2024/04/05 02:53:23;;;;;;;4.03;1.10;;;;;;;;;;4908117;29;20035;-79
2024/04/05 02:55:48;;;;;;;4.47;1.08;;;;;;;;;;4921342;29;20038;-79
2024/04/05 02:58:14;;;;;;;9.05;1.55;;;;;;;;;;4904721;29;20119;-80
2024/04/05 03:00:41;;;;;;;5.47;1.10;;;;;;;;;;4918338;29;20491;-80
2024/04/05 03:03:06;;;;;;;6.40;1.40;;;;;;;;;;4919834;29;20036;-78
2024/04/05 03:05:32;;;;;;;7.10;1.88;;;;;;;;;;4904358;29;20087;-79
2024/04/05 03:07:57;;;;;;;6.55;1.10;;;;;;;;;;4937598;29;20039;-79
2024/04/05 03:10:23;;;;;;;4.70;1.42;;;;;;;;;;4905278;29;20067;-80
2024/04/05 03:12:52;;;;;;;6.68;1.23;;;;;;;;;;4920926;29;20542;-79
2024/04/05 03:15:18;;;;;;;4.95;1.23;;;;;;;;;;4938074;29;20435;-79
2024/04/05 03:17:43;;;;;;;6.55;1.52;;;;;;;;;;4916093;29;20028;-79
2024/04/05 03:20:12;;;;;;;5.38;1.20;;;;;;;;;;4929865;29;20503;-81
2024/04/05 03:22:37;;;;;;;;;;;;;;;;;;4905352;29;20028;-81
2024/04/05 03:25:03;;;;;;;4.50;1.45;;;;;;;;;;4936832;29;19933;-81
2024/04/05 03:27:29;;;;;;;4.32;1.30;;;;;;;;;;4936685;29;20094;-78
2024/04/05 03:29:54;;;;;;;6.07;1.23;;;;;;;;;;4920067;29;20074;-79
2024/04/05 03:32:20;;;;;;;6.38;1.63;;;;;;;;;;4935751;29;20031;-79
2024/04/05 03:34:46;;;;;;;8.65;2.17;;;;;;;;;;4919446;29;20130;-79
2024/04/05 03:37:11;;;;;;;9.57;1.75;;;;;;;;;;4946922;29;20126;-80
2024/04/05 03:39:37;;;;;;;5.93;1.48;;;;;;;;;;4916487;29;20116;-79
2024/04/05 03:42:02;;;;;;;7.65;1.90;;;;;;;;;;4905232;29;20032;-79
2024/04/05 03:44:28;;;;;;;7.65;1.33;;;;;;;;;;4912133;29;20380;-79
2024/04/05 03:46:54;;;;;;;7.50;1.33;;;;;;;;;;4950887;29;20118;-79
2024/04/05 03:49:20;;;;;;;4.07;1.17;;;;;;;;;;4935016;29;20024;-79
2024/04/05 03:51:45;;;;;;;7.50;1.42;;;;;;;;;;4934436;29;20032;-81
2024/04/05 03:54:10;;;;;;;10.43;3.67;;;;;;;;;;4934952;29;20032;-80
2024/04/05 03:56:36;;;;;;;9.70;1.58;;;;;;;;;;4950518;29;20035;-80
2024/04/05 03:59:01;;;;;;;5.57;1.52;;;;;;;;;;4934969;29;20059;-79
2024/04/05 04:01:27;;;;;;;7.43;1.67;;;;;;;;;;4936140;29;20539;-80
2024/04/05 04:03:52;;;;;;;13.13;1.50;;;;;;;;;;4935721;29;20092;-80
2024/04/05 04:06:18;;;;;;;8.65;1.63;;;;;;;;;;4937563;29;20035;-80
2024/04/05 04:08:43;;;;;;;5.80;1.50;;;;;;;;;;4938470;29;20151;-80
2024/04/05 04:11:09;;;;;;;8.57;1.50;;;;;;;;;;4937222;29;20032;-78
2024/04/05 04:13:34;;;;;;;7.97;1.38;;;;;;;;;;4935434;29;20065;-79
2024/04/05 04:16:00;;;;;;;7.85;1.75;;;;;;;;;;4935376;29;20521;-79
2024/04/05 04:18:25;;;;;;;7.93;2.10;;;;;;;;;;4921895;29;20578;-79
2024/04/05 04:20:52;;;;;;;7.97;1.48;;;;;;;;;;4905632;29;20567;-81
2024/04/05 04:23:18;;;;;;;4.70;1.40;;;;;;;;;;4937725;29;20123;-79
2024/04/05 04:25:45;;;;;;;6.00;1.40;;;;;;;;;;4938647;29;20506;-80
2024/04/05 04:28:11;;;;;;;13.27;1.55;;;;;;;;;;4938914;29;20031;-80
2024/04/05 04:30:37;;;;;;;7.90;1.98;;;;;;;;;;4938302;29;20020;-79
2024/04/05 04:33:02;;;;;;;7.03;1.63;;;;;;;;;;4935659;29;20048;-79
2024/04/05 04:35:28;;;;;;;7.40;1.80;;;;;;;;;;4951852;28;20070;-80
2024/04/05 04:37:54;;;;;;;8.73;1.85;;;;;;;;;;4919773;29;20028;-80
2024/04/05 04:40:19;;;;;;;9.65;1.83;;;;;;;;;;4936661;29;20069;-79
2024/04/05 04:42:45;;;;;;;7.10;1.65;;;;;;;;;;4921381;29;20039;-81
2024/04/05 04:45:10;;;;;;;7.18;2.00;;;;;;;;;;4937208;29;20058;-80
2024/04/05 04:47:37;;;;;;;10.63;2.30;;;;;;;;;;4907392;29;20546;-80
2024/04/05 04:50:04;;;;;;;5.15;1.60;;;;;;;;;;4921956;29;20190;-81
2024/04/05 04:52:29;;;;;;;6.70;1.60;;;;;;;;;;4924676;29;20064;-79
2024/04/05 04:54:56;;;;;;;8.30;1.48;;;;;;;;;;4941318;29;20028;-81
2024/04/05 04:57:22;;;;;;;12.15;1.98;;;;;;;;;;4940600;29;20059;-82
2024/04/05 04:59:48;;;;;;;10.75;1.80;;;;;;;;;;4940755;29;20038;-79
2024/04/05 05:02:13;;;;;;;5.78;2.00;;;;;;;;;;4922773;29;20032;-80
2024/04/05 05:04:39;;;;;;;12.20;2.10;;;;;;;;;;4954842;28;20020;-80
2024/04/05 05:07:06;;;;;;;5.32;1.60;;;;;;;;;;4939983;29;20043;-80
2024/04/05 05:09:32;;;;;;;7.20;1.92;;;;;;;;;;4924385;29;20031;-80
2024/04/05 05:11:58;;;;;;;6.20;1.70;;;;;;;;;;4939755;29;20571;-81
2024/04/05 05:14:25;;;;;;;10.32;1.88;;;;;;;;;;4923918;29;20122;-79
2024/04/05 05:16:51;;;;;;;9.80;1.95;;;;;;;;;;4953533;29;20071;-80
2024/04/05 05:19:17;;;;;;;5.68;1.60;;;;;;;;;;4940057;29;20409;-78
2024/04/05 05:21:43;;;;;;;6.93;2.03;;;;;;;;;;4936848;29;20043;-79
2024/04/05 05:24:09;;;;;;;8.68;2.15;;;;;;;;;;4923972;29;20081;-79
2024/04/05 05:26:34;;;;;;;9.57;3.15;;;;;;;;;;4938846;29;20526;-80
2024/04/05 05:29:00;;;;;;;7.25;1.85;;;;;;;;;;4908126;29;20032;-79
2024/04/05 05:31:26;;;;;;;8.70;2.40;;;;;;;;;;4922849;29;20078;-79
2024/04/05 05:33:51;;;;;;;9.95;2.25;;;;;;;;;;4938614;29;20433;-80
2024/04/05 05:36:17;;;;;;;8.65;2.00;;;;;;;;;;4906904;29;20499;-79
2024/04/05 05:38:42;;;;;;;7.53;1.75;;;;;;;;;;4908531;29;20122;-79
2024/04/05 05:41:08;;;;;;;7.53;1.98;;;;;;;;;;4907966;29;20042;-80
2024/04/05 05:43:34;;;;;;;9.10;1.95;;;;;;;;;;4922618;29;20038;-80
2024/04/05 05:46:00;;;;;;;11.95;1.63;;;;;;;;;;4923973;29;20031;-80
2024/04/05 05:48:26;;;;;;;8.38;1.80;;;;;;;;;;4939494;29;20054;-80
2024/04/05 05:50:51;;;;;;;7.57;2.00;;;;;;;;;;4939759;29;20122;-79
2024/04/05 05:53:18;;;;;;;5.85;2.03;;;;;;;;;;4921911;29;21493;-79
2024/04/05 05:55:53;;;;;;;9.00;1.80;;;;;;;;;;4921977;29;20406;-82
2024/04/05 05:58:19;;;;;;;9.30;1.92;;;;;;;;;;4904389;29;20103;-79
2024/04/05 06:00:44;;;;;;;8.95;1.95;;;;;;;;;;4933061;29;20444;-80
2024/04/05 06:03:11;;;;;;;8.27;2.00;;;;;;;;;;4906383;29;20035;-79
2024/04/05 06:05:37;;;;;;;8.90;2.05;;;;;;;;;;4906107;29;20388;-80
2024/04/05 06:08:03;;;;;;;12.90;2.30;;;;;;;;;;4921752;29;20028;-80
2024/04/05 06:10:28;;;;;;;8.70;2.10;;;;;;;;;;4922356;29;20068;-81
2024/04/05 06:12:54;;;;;;;9.45;2.05;;;;;;;;;;4939307;29;20032;-78
2024/04/05 06:15:19;;;;;;;6.55;1.80;;;;;;;;;;4936783;29;20035;-81
2024/04/05 06:17:46;;;;;;;7.18;2.28;;;;;;;;;;4919585;29;20050;-80
2024/04/05 06:20:11;;;;;;;4.97;1.85;;;;;;;;;;4954959;29;20043;-79
2024/04/05 06:22:37;;;;;;;11.02;2.20;;;;;;;;;;4922024;29;20035;-80
2024/04/05 06:25:04;;;;;;;9.18;2.10;;;;;;;;;;4949025;28;20027;-79
2024/04/05 06:27:31;;;;;;;7.95;2.25;;;;;;;;;;4921276;29;20483;-80
2024/04/05 06:29:57;;;;;;;10.65;2.28;;;;;;;;;;4936120;29;20130;-81
2024/04/05 06:32:23;;;;;;;11.55;2.10;;;;;;;;;;4937536;29;20601;-79
2024/04/05 06:34:50;;;;;;;8.23;1.73;;;;;;;;;;4921622;29;20119;-79
2024/04/05 06:37:15;;;;;;;10.07;1.90;;;;;;;;;;4935148;29;20143;-81
2024/04/05 06:39:41;;;;;;;10.68;2.63;;;;;;;;;;4936144;29;20145;-81
2024/04/05 06:42:07;;;;;;;9.75;2.10;;;;;;;;;;4936695;29;20435;-81
2024/04/05 06:44:36;;;;;;;10.85;2.75;;;;;;;;;;4943453;29;20039;-82
2024/04/05 06:47:09;;;;;;;8.50;2.53;;;;;;;;;;4952556;29;20024;-81
2024/04/05 06:49:37;;;;;;;8.02;2.00;;;;;;;;;;4933211;29;20031;-81
2024/04/05 06:52:05;;;;;;;9.57;2.25;;;;;;;;;;4914344;29;20031;-81
2024/04/05 06:54:30;;;;;;;10.63;2.05;;;;;;;;;;4913745;29;20051;-81
2024/04/05 06:57:03;;;;;;;7.85;2.22;;;;;;;;;;4927650;29;20036;-83
2024/04/05 06:59:32;;;;;;;9.95;2.70;;;;;;;;;;4942065;29;20046;-81
2024/04/05 07:01:58;;;;;;;12.70;2.67;;;;;;;;;;4935137;29;20032;-81
2024/04/05 07:04:25;;;;;;;15.48;2.65;;;;;;;;;;4907456;29;20039;-81
2024/04/05 07:06:51;;;;;;;13.63;2.60;;;;;;;;;;4915797;29;20039;-81
2024/04/05 07:09:20;;;;;;;8.90;1.98;;;;;;;;;;4912457;29;20028;-80
2024/04/05 07:11:46;;;;;;;12.82;2.85;;;;;;;;;;4914427;29;20103;-81
2024/04/05 07:14:12;;;;;;;10.65;2.67;;;;;;;;;;4939496;29;20028;-82
2024/04/05 07:16:38;;;;;;;8.30;2.67;;;;;;;;;;4931621;29;20550;-81
2024/04/05 07:19:03;;;;;;;10.77;3.22;;;;;;;;;;4907513;29;20031;-80
2024/04/05 07:21:31;;;;;;;10.55;2.40;;;;;;;;;;4931299;29;20510;-81
2024/04/05 07:23:57;;;;;;;6.80;2.22;;;;;;;;;;4938634;29;20503;-80
2024/04/05 07:26:23;;;;;;;7.40;2.47;;;;;;;;;;4922603;29;20040;-81
2024/04/05 07:28:50;;;;;;;7.78;2.92;;;;;;;;;;4922200;29;20035;-81
2024/04/05 07:31:16;;;;;;;11.73;2.67;;;;;;;;;;4924242;29;20036;-82
2024/04/05 07:33:42;;;;;;;11.93;3.00;;;;;;;;;;4919496;29;20046;-81
2024/04/05 07:36:08;;;;;;;12.00;2.97;;;;;;;;;;4893733;29;20039;-80
2024/04/05 07:38:33;;;;;;;11.85;2.88;;;;;;;;;;4898338;29;20444;-81
2024/04/05 07:41:03;;;;;;;10.52;2.80;;;;;;;;;;4905532;29;20127;-81
2024/04/05 07:43:29;;;;;;;10.18;2.67;;;;;;;;;;4922187;29;20036;-81
2024/04/05 07:45:56;;;;;;;14.90;3.13;;;;;;;;;;4924240;29;20036;-80
2024/04/05 07:48:22;;;;;;;10.20;2.67;;;;;;;;;;4931190;29;20396;-79
2024/04/05 07:50:47;;;;;;;12.18;2.90;;;;;;;;;;4914689;29;20028;-81
2024/04/05 07:53:13;;;;;;;12.80;2.70;;;;;;;;;;4928244;29;20132;-79
2024/04/05 07:55:39;;;;;;;9.98;2.20;;;;;;;;;;4925416;29;20035;-79
2024/04/05 07:58:06;;;;;;;9.57;2.17;;;;;;;;;;4940547;29;20038;-80
2024/04/05 08:00:32;;;;;;;10.32;2.65;;;;;;;;;;4910850;29;20036;-80
2024/04/05 08:02:57;;;;;;;11.95;3.80;;;;;;;;;;4931343;29;20032;-82
2024/04/05 08:05:23;;;;;;;13.13;2.65;;;;;;;;;;4933161;29;20032;-80
2024/04/05 08:07:49;;;;;;;7.65;2.20;;;;;;;;;;4932981;29;20031;-80
2024/04/05 08:10:15;;;;;;;9.45;2.30;;;;;;;;;;4950477;29;20079;-80
2024/04/05 08:12:40;;;;;;;7.88;2.10;;;;;;;;;;4949262;29;20039;-82
2024/04/05 08:15:09;;;;;;;8.65;2.20;;;;;;;;;;4929936;29;20044;-81
2024/04/05 08:17:35;;;;;;;8.60;2.30;;;;;;;;;;4909369;29;20421;-82
2024/04/05 08:20:00;;;;;;;10.27;2.65;;;;;;;;;;4921616;29;20036;-78
2024/04/05 08:22:52;;;;;;;12.90;2.50;;;;;;;;;;4920315;29;20044;-81
2024/04/05 08:25:23;;;;;;;9.73;2.60;;;;;;;;;;4927302;29;20036;-80
2024/04/05 08:27:49;;;;;;;7.57;2.00;;;;;;;;;;4925481;29;20032;-80
2024/04/05 08:30:18;;;;;;;9.40;2.50;;;;;;;;;;4925185;29;20028;-82
2024/04/05 08:32:44;;;;;;;8.23;1.95;;;;;;;;;;4934247;29;20510;-82
2024/04/05 08:35:10;;;;;;;9.82;2.50;;;;;;;;;;4942591;29;20055;-81
2024/04/05 08:37:38;;;;;;;7.95;1.95;;;;;;;;;;4943919;29;20036;-81
2024/04/05 08:40:04;;;;;;;;;;;;;;;;;;4913332;29;20043;-82
2024/04/05 08:42:34;;;;;;;10.48;2.10;;;;;;;;;;4925267;29;19915;-82
2024/04/05 08:45:03;;;;;;;7.80;2.05;;;;;;;;;;4941209;29;20047;-81
2024/04/05 08:47:33;;;;;;;9.48;1.70;;;;;;;;;;4908996;29;20714;-79
2024/04/05 08:49:59;;;;;;;6.28;2.75;;;;;;;;;;4921728;29;20055;-81
2024/04/05 08:52:25;;;;;;;9.95;2.72;;;;;;;;;;4911593;29;20056;-82
2024/04/05 08:54:52;;;;;;;7.45;1.77;;;;;;;;;;4924089;29;20036;-80
2024/04/05 08:57:18;;;;;;;7.22;1.92;;;;;;;;;;4910149;29;20043;-82
2024/04/05 08:59:45;;;;;;;8.30;2.03;;;;;;;;;;4906213;29;20071;-83
2024/04/05 09:02:12;;;;;;;6.95;2.28;;;;;;;;;;4936274;29;20036;-80
2024/04/05 09:04:39;;;;;;;5.97;2.22;;;;;;;;;;4940271;29;20032;-81
2024/04/05 09:07:05;;;;;;;8.93;1.90;;;;;;;;;;4937075;29;20120;-79
2024/04/05 09:09:32;;;;;;;7.72;2.20;;;;;;;;;;4909645;29;20031;-81
2024/04/05 09:12:07;;;;;;;10.35;2.05;;;;;;;;;;4908763;29;20095;-79
2024/04/05 09:14:37;;;;;;;8.98;1.98;;;;;;;;;;4926723;29;20039;-80
2024/04/05 09:17:13;;;;;;;11.40;2.35;;;;;;;;;;4945039;29;20091;-82
2024/04/05 09:19:39;;;;;;;8.75;2.30;;;;;;;;;;4929517;29;20112;-81
2024/04/05 09:22:05;;;;;;;15.10;2.45;;;;;;;;;;4913075;29;20070;-81
2024/04/05 09:24:31;;;;;;;9.63;2.17;;;;;;;;;;4943173;29;20024;-82
2024/04/05 09:27:03;;;;;;;6.28;1.70;;;;;;;;;;4918447;29;20036;-81
2024/04/05 09:29:29;;;;;;;8.15;1.90;;;;;;;;;;4931211;29;20032;-81
2024/04/05 09:31:54;;;;;;;7.32;2.15;;;;;;;;;;4940891;29;20023;-81
2024/04/05 09:34:25;;;;;;;10.27;2.22;;;;;;;;;;4928932;29;20062;-81
2024/04/05 09:36:51;;;;;;;8.77;2.03;;;;;;;;;;4929773;29;20118;-82
2024/04/05 09:39:21;;;;;;;8.35;1.52;;;;;;;;;;4924219;29;20039;-81
2024/04/05 09:41:46;;;;;;;;;;;;;;;;;;4927392;29;20063;-79
2024/04/05 09:44:12;;;;;;;5.53;1.48;;;;;;;;;;4924533;29;19914;-81
2024/04/05 09:46:38;;;;;;;7.45;2.00;;;;;;;;;;4946749;29;20044;-82
2024/04/05 09:49:03;;;;;;;10.18;1.67;;;;;;;;;;4933885;29;20032;-81
2024/04/05 09:51:39;;;;;;;8.35;1.80;;;;;;;;;;4940566;29;20062;-79
2024/04/05 09:54:06;;;;;;;13.75;1.83;;;;;;;;;;4930188;29;20039;-81
2024/04/05 09:56:33;;;;;;;7.55;2.00;;;;;;;;;;4925554;29;20062;-80
2024/04/05 09:59:00;;;;;;;8.55;1.80;;;;;;;;;;4914036;29;20028;-81
2024/04/05 10:01:26;;;;;;;7.82;1.67;;;;;;;;;;4923183;29;20052;-80
2024/04/05 10:03:54;;;;;;;11.37;1.87;;;;;;;;;;4908150;29;20031;-81
2024/04/05 10:06:24;;;;;;;7.13;1.70;;;;;;;;;;4906781;29;20305;-81
2024/04/05 10:08:49;;;;;;;11.75;1.77;;;;;;;;;;4923746;29;20067;-80
2024/04/05 10:11:15;;;;;;;8.82;1.90;;;;;;;;;;4907351;29;20439;-81
2024/04/05 10:13:41;;;;;;;12.10;1.73;;;;;;;;;;4939602;29;20050;-79
2024/04/05 10:16:08;;;;;;;7.25;1.55;;;;;;;;;;4936010;29;20039;-80
2024/04/05 10:18:36;;;;;;;7.30;1.30;;;;;;;;;;4922605;29;20040;-80
2024/04/05 10:21:03;;;;;;;9.15;1.70;;;;;;;;;;4938146;29;20036;-80
2024/04/05 10:23:28;;;;;;;5.70;1.48;;;;;;;;;;4925143;29;20039;-79
2024/04/05 10:25:54;;;;;;;7.22;1.40;;;;;;;;;;4923152;29;20063;-82
2024/04/05 10:28:21;;;;;;;5.05;1.45;;;;;;;;;;4920817;29;20024;-81
2024/04/05 10:30:49;;;;;;;8.48;1.60;;;;;;;;;;4940729;29;20047;-80
2024/04/05 10:33:18;;;;;;;4.97;1.10;;;;;;;;;;4935898;29;20031;-80
2024/04/05 10:35:45;;;;;;;5.47;1.13;;;;;;;;;;4923078;29;20040;-81
2024/04/05 10:38:10;;;;;;;3.85;1.48;;;;;;;;;;4924110;29;20067;-81
2024/04/05 10:40:37;;;;;;;5.25;1.10;;;;;;;;;;4907663;29;20127;-80
2024/04/05 10:43:07;;;;;;;6.47;1.35;;;;;;;;;;4923108;29;20035;-81
2024/04/05 10:45:33;;;;;;;5.88;1.58;;;;;;;;;;4939830;29;20027;-81
2024/04/05 10:47:59;;;;;;;10.07;2.53;;;;;;;;;;4904149;29;20036;-81
2024/04/05 10:50:24;;;;;;;3.80;1.13;;;;;;;;;;4916520;29;20074;-81
2024/04/05 10:52:52;;;;;;;3.72;0.90;;;;;;;;;;4907702;29;20099;-81
2024/04/05 10:55:18;;;;;;;7.82;1.42;;;;;;;;;;4920262;29;20032;-81
2024/04/05 10:57:44;;;;;;;6.13;1.27;;;;;;;;;;4926704;29;20095;-80
2024/04/05 11:00:11;;;;;;;4.80;1.20;;;;;;;;;;4923371;29;20067;-81
2024/04/05 11:02:43;;;;;;;5.93;1.30;;;;;;;;;;4922443;29;20032;-81
2024/04/05 11:05:10;;;;;;;7.90;1.40;;;;;;;;;;4906503;29;20392;-80
2024/04/05 11:07:37;;;;;;;6.75;1.20;;;;;;;;;;4908848;29;20040;-81
2024/04/05 11:10:19;;;;;;;6.10;1.20;;;;;;;;;;4928731;29;20110;-82
2024/04/05 11:12:45;;;;;;;4.45;1.10;;;;;;;;;;4922318;29;20028;-81
2024/04/05 11:15:11;;;;;;;6.38;1.20;;;;;;;;;;4907066;29;20036;-81
2024/04/05 11:17:37;;;;;;;3.85;1.30;;;;;;;;;;4938936;29;20043;-82
2024/04/05 11:20:11;;;;;;;3.90;1.00;;;;;;;;;;4923341;29;20050;-82
2024/04/05 11:22:37;;;;;;;5.35;1.10;;;;;;;;;;4922885;29;20054;-81
2024/04/05 11:25:03;;;;;;;7.32;1.30;;;;;;;;;;4898756;29;20793;-80
2024/04/05 11:27:31;;;;;;;9.55;1.67;;;;;;;;;;4923021;29;20090;-82
2024/04/05 11:29:57;;;;;;;4.13;1.20;;;;;;;;;;4924007;29;20039;-80
2024/04/05 11:32:31;;;;;;;3.83;1.10;;;;;;;;;;4910356;29;20039;-83
2024/04/05 11:35:01;;;;;;;4.97;1.25;;;;;;;;;;4927490;29;20035;-81
2024/04/05 11:37:28;;;;;;;6.30;1.23;;;;;;;;;;4916420;29;20051;-84
2024/04/05 11:39:54;;;;;;;5.82;1.27;;;;;;;;;;4914839;29;20040;-81
2024/04/05 11:42:20;;;;;;;3.67;1.05;;;;;;;;;;4926507;29;20035;-82
2024/04/05 11:44:47;;;;;;;5.32;1.13;;;;;;;;;;4927158;29;20102;-82
2024/04/05 11:47:12;;;;;;;4.38;1.08;;;;;;;;;;4940894;29;20096;-81
2024/04/05 11:49:38;;;;;;;4.38;1.58;;;;;;;;;;4923059;29;20557;-81
2024/04/05 11:52:05;;;;;;;4.70;0.90;;;;;;;;;;4924214;29;20028;-81
2024/04/05 11:54:32;;;;;;;7.72;1.20;;;;;;;;;;4936588;29;20032;-81
2024/04/05 11:56:58;;;;;;;4.95;1.30;;;;;;;;;;4936897;29;20067;-82
2024/04/05 11:59:24;;;;;;;4.88;1.10;;;;;;;;;;4922456;29;20118;-82
2024/04/05 12:01:50;;;;;;;4.63;1.10;;;;;;;;;;4940518;29;20043;-83
2024/04/05 12:04:15;;;;;;;4.20;1.00;;;;;;;;;;4939555;29;20039;-82
2024/04/05 12:06:41;;;;;;;4.57;1.05;;;;;;;;;;4923913;29;20032;-82
2024/04/05 12:09:08;;;;;;;3.17;0.90;;;;;;;;;;4924597;29;20032;-83
2024/04/05 12:11:33;;;;;;;4.65;0.90;;;;;;;;;;4911247;29;20032;-83
2024/04/05 12:13:59;;;;;;;7.28;1.38;;;;;;;;;;4911907;29;20043;-82
2024/04/05 12:16:25;;;;;;;4.25;0.88;;;;;;;;;;4943729;29;20035;-82
2024/04/05 12:18:51;;;;;;;4.97;1.00;;;;;;;;;;4929186;29;20042;-82
2024/04/05 12:21:16;;;;;;;4.85;0.77;;;;;;;;;;4928691;29;20059;-81
2024/04/05 12:23:44;;;;;;;4.85;1.00;;;;;;;;;;4913286;29;20051;-82
2024/04/05 12:26:10;;;;;;;4.63;1.10;;;;;;;;;;4909982;29;20024;-81
2024/04/05 12:28:36;;;;;;;5.05;0.80;;;;;;;;;;4924219;29;20095;-82
2024/04/05 12:31:02;;;;;;;4.13;1.30;;;;;;;;;;4939825;29;20059;-82
2024/04/05 12:33:27;;;;;;;4.47;0.80;;;;;;;;;;4924895;29;20031;-81
2024/04/05 12:35:59;;;;;;;2.33;0.88;;;;;;;;;;4922880;29;20067;-80
2024/04/05 12:38:28;;;;;;;5.00;1.15;;;;;;;;;;4924427;29;20055;-81
2024/04/05 12:40:57;;;;;;;4.00;1.08;;;;;;;;;;4927655;29;20035;-80
2024/04/05 12:43:22;;;;;;;4.38;1.50;;;;;;;;;;4906242;29;20028;-81
2024/04/05 12:45:58;;;;;;;2.55;0.90;;;;;;;;;;4914451;29;20112;-80
2024/04/05 12:48:24;;;;;;;3.92;1.13;;;;;;;;;;4910855;29;20042;-82
2024/04/05 12:50:54;;;;;;;5.55;1.60;;;;;;;;;;4954212;29;20040;-82
2024/04/05 12:53:20;;;;;;;5.82;1.60;;;;;;;;;;4926248;29;20059;-81
2024/04/05 12:55:56;;;;;;;6.32;1.10;;;;;;;;;;4929251;29;20024;-83
2024/04/05 12:58:22;;;;;;;11.02;1.48;;;;;;;;;;4925386;29;20099;-82
2024/04/05 13:00:48;;;;;;;6.03;1.00;;;;;;;;;;4940515;29;20380;-83
2024/04/05 13:03:14;;;;;;;2.83;0.95;;;;;;;;;;4909772;29;20043;-83
2024/04/05 13:05:39;;;;;;;3.15;0.90;;;;;;;;;;4941441;29;20547;-82
2024/04/05 13:08:05;;;;;;;3.72;1.23;;;;;;;;;;4942469;29;20042;-81
2024/04/05 13:10:31;;;;;;;4.55;0.85;;;;;;;;;;4924699;29;20043;-80
2024/04/05 13:12:57;;;;;;;6.60;1.20;;;;;;;;;;4919333;29;20500;-80
2024/04/05 13:15:23;;;;;;;4.28;1.17;;;;;;;;;;4924537;29;20130;-82
2024/04/05 13:17:48;;;;;;;5.20;1.30;;;;;;;;;;4928486;29;20411;-82
2024/04/05 13:20:14;;;;;;;3.72;0.90;;;;;;;;;;4926824;29;20028;-81
2024/04/05 13:22:40;;;;;;;4.20;1.20;;;;;;;;;;4939158;29;20487;-83
2024/04/05 13:25:05;;;;;;;5.22;1.30;;;;;;;;;;4945330;29;20032;-80
2024/04/05 13:27:31;;;;;;;9.77;1.58;;;;;;;;;;4928277;29;20032;-82
2024/04/05 13:29:57;;;;;;;8.52;1.85;;;;;;;;;;4911011;29;20032;-82
2024/04/05 13:32:23;;;;;;;4.47;1.30;;;;;;;;;;4924214;29;20492;-80
2024/04/05 13:34:52;;;;;;;6.28;1.45;;;;;;;;;;4925718;29;20036;-81
2024/04/05 13:37:17;;;;;;;7.60;1.20;;;;;;;;;;4924777;29;20036;-81
2024/04/05 13:39:43;;;;;;;5.32;1.55;;;;;;;;;;4926397;29;20491;-82
2024/04/05 13:42:09;;;;;;;3.97;0.95;;;;;;;;;;4926610;29;20095;-81
2024/04/05 13:44:35;;;;;;;3.22;1.00;;;;;;;;;;4926184;29;20028;-82
2024/04/05 13:47:01;;;;;;;4.57;1.15;;;;;;;;;;4928975;29;20038;-82
2024/04/05 13:49:26;;;;;;;7.50;1.10;;;;;;;;;;4937926;29;20039;-81
2024/04/05 13:51:52;;;;;;;4.78;1.40;;;;;;;;;;4946591;29;20103;-81
2024/04/05 13:54:18;;;;;;;3.22;1.30;;;;;;;;;;4941743;29;20048;-81
2024/04/05 13:56:44;;;;;;;6.05;1.30;;;;;;;;;;4944393;29;20065;-83
2024/04/05 13:59:10;;;;;;;4.18;0.95;;;;;;;;;;4916631;29;20517;-83
2024/04/05 14:01:36;;;;;;;6.40;1.10;;;;;;;;;;4931538;29;20063;-83
2024/04/05 14:04:02;;;;;;;5.32;0.93;;;;;;;;;;4921455;29;20032;-83
2024/04/05 14:06:28;;;;;;;5.82;0.95;;;;;;;;;;4905766;29;20446;-81
2024/04/05 14:08:53;;;;;;;3.40;1.30;;;;;;;;;;4940815;29;20035;-82
2024/04/05 14:11:19;;;;;;;2.95;0.90;;;;;;;;;;4910681;29;20030;-81
2024/04/05 14:13:46;;;;;;;3.60;1.33;;;;;;;;;;4927649;29;20028;-81
2024/04/05 14:16:14;;;;;;;8.00;1.20;;;;;;;;;;4961332;29;20075;-81
2024/04/05 14:18:40;;;;;;;4.20;1.05;;;;;;;;;;4914465;29;20031;-81
2024/04/05 14:21:11;;;;;;;8.38;1.17;;;;;;;;;;4930265;29;20479;-82
2024/04/05 14:23:36;;;;;;;7.22;1.10;;;;;;;;;;4944946;29;20101;-82
2024/04/05 14:26:02;;;;;;;6.20;1.10;;;;;;;;;;4913510;29;20051;-82
2024/04/05 14:28:29;;;;;;;5.82;0.77;;;;;;;;;;4949983;29;20032;-83
2024/04/05 14:30:55;;;;;;;6.03;1.00;;;;;;;;;;4924800;29;20079;-78
2024/04/05 14:33:20;;;;;;;4.88;0.90;;;;;;;;;;4922537;29;20038;-79
2024/04/05 14:35:46;;;;;;;4.80;1.00;;;;;;;;;;4917259;29;20126;-80
2024/04/05 14:38:12;;;;;;;3.75;1.20;;;;;;;;;;4940524;29;20039;-79